sensor_id;sensor_type;location;lat;lon;timestamp;pressure;altitude;pressure_sealevel;temperature;humidity
58973;BME280;44750;52.040;7.472;2023-07-13T00:03:05;99955.41;;;18.80;nan
58973;BME280;44750;52.040;7.472;2023-07-13T00:08:05;99943.13;;;18.64;nan
58973;BME280;44750;52.040;7.472;2023-07-13T00:13:05;99947.06;;;18.49;nan
58973;BME280;44750;52.040;7.472;2023-07-13T00:18:06;99953.00;;;18.46;nan
58973;BME280;44750;52.040;7.472;2023-07-13T00:23:07;99965.19;;;18.50;nan
58973;BME280;44750;52.040;7.472;2023-07-13T00:28:07;99953.16;;;18.51;nan
58973;BME280;44750;52.040;7.472;2023-07-13T00:33:07;99951.34;;;18.38;nan
58973;BME280;44750;52.040;7.472;2023-07-13T00:38:07;99948.03;;;18.30;nan
58973;BME280;44750;52.040;7.472;2023-07-13T00:43:13;99951.25;;;18.27;nan
58973;BME280;44750;52.040;7.472;2023-07-13T00:48:25;99955.31;;;18.17;nan
58973;BME280;44750;52.040;7.472;2023-07-13T00:53:27;99954.34;;;18.05;nan
58973;BME280;44750;52.040;7.472;2023-07-13T00:58:29;99953.53;;;17.98;nan
58973;BME280;44750;52.040;7.472;2023-07-13T01:03:29;99933.81;;;17.82;nan
58973;BME280;44750;52.040;7.472;2023-07-13T01:08:29;99949.09;;;17.65;nan
58973;BME280;44750;52.040;7.472;2023-07-13T01:13:30;99942.19;;;17.55;nan
58973;BME280;44750;52.040;7.472;2023-07-13T01:18:30;99945.34;;;17.52;nan
58973;BME280;44750;52.040;7.472;2023-07-13T01:23:31;99935.50;;;17.45;nan
58973;BME280;44750;52.040;7.472;2023-07-13T01:28:32;99934.69;;;17.37;nan
58973;BME280;44750;52.040;7.472;2023-07-13T01:33:32;99945.19;;;17.41;nan
58973;BME280;44750;52.040;7.472;2023-07-13T01:38:34;99921.88;;;17.25;nan
58973;BME280;44750;52.040;7.472;2023-07-13T01:43:34;99916.06;;;17.14;nan
58973;BME280;44750;52.040;7.472;2023-07-13T01:48:35;99906.44;;;16.98;nan
58973;BME280;44750;52.040;7.472;2023-07-13T01:53:35;99924.72;;;16.98;nan
58973;BME280;44750;52.040;7.472;2023-07-13T01:58:35;99941.75;;;17.00;nan
58973;BME280;44750;52.040;7.472;2023-07-13T02:03:35;99953.97;;;16.97;nan
58973;BME280;44750;52.040;7.472;2023-07-13T02:08:37;99963.44;;;16.95;nan
58973;BME280;44750;52.040;7.472;2023-07-13T02:13:37;99948.50;;;16.91;nan
58973;BME280;44750;52.040;7.472;2023-07-13T02:18:37;99970.16;;;16.92;nan
58973;BME280;44750;52.040;7.472;2023-07-13T02:23:37;99969.09;;;16.86;nan
58973;BME280;44750;52.040;7.472;2023-07-13T02:28:38;99976.25;;;16.87;nan
58973;BME280;44750;52.040;7.472;2023-07-13T02:33:38;99966.59;;;16.71;nan
58973;BME280;44750;52.040;7.472;2023-07-13T02:38:39;99982.13;;;16.71;nan
58973;BME280;44750;52.040;7.472;2023-07-13T02:43:39;99969.94;;;16.60;nan
58973;BME280;44750;52.040;7.472;2023-07-13T02:48:39;99994.75;;;16.59;nan
58973;BME280;44750;52.040;7.472;2023-07-13T02:53:40;99977.09;;;16.41;nan
58973;BME280;44750;52.040;7.472;2023-07-13T02:58:40;99986.78;;;16.37;nan
58973;BME280;44750;52.040;7.472;2023-07-13T03:03:41;99967.81;;;16.15;nan
58973;BME280;44750;52.040;7.472;2023-07-13T03:08:41;99966.53;;;15.98;nan
58973;BME280;44750;52.040;7.472;2023-07-13T03:13:42;99996.16;;;16.01;nan
58973;BME280;44750;52.040;7.472;2023-07-13T03:18:42;100000.53;;;15.95;nan
58973;BME280;44750;52.040;7.472;2023-07-13T03:23:43;100015.88;;;15.96;nan
58973;BME280;44750;52.040;7.472;2023-07-13T03:28:44;100007.03;;;15.81;nan
58973;BME280;44750;52.040;7.472;2023-07-13T03:33:44;100018.31;;;15.78;nan
58973;BME280;44750;52.040;7.472;2023-07-13T03:38:49;100032.16;;;15.76;nan
58973;BME280;44750;52.040;7.472;2023-07-13T03:43:50;100034.88;;;15.69;nan
58973;BME280;44750;52.040;7.472;2023-07-13T03:48:50;100032.31;;;15.61;nan
58973;BME280;44750;52.040;7.472;2023-07-13T03:53:51;100054.59;;;15.65;nan
58973;BME280;44750;52.040;7.472;2023-07-13T03:58:51;100052.25;;;15.62;nan
58973;BME280;44750;52.040;7.472;2023-07-13T04:03:52;100077.69;;;15.69;nan
58973;BME280;44750;52.040;7.472;2023-07-13T04:08:55;100081.03;;;15.71;nan
58973;BME280;44750;52.040;7.472;2023-07-13T04:13:55;100080.19;;;15.64;nan
58973;BME280;44750;52.040;7.472;2023-07-13T04:18:57;100111.75;;;15.80;nan
58973;BME280;44750;52.040;7.472;2023-07-13T04:23:57;100122.06;;;15.84;nan
58973;BME280;44750;52.040;7.472;2023-07-13T04:28:58;100148.22;;;16.07;nan
58973;BME280;44750;52.040;7.472;2023-07-13T04:33:58;100153.03;;;16.05;nan
58973;BME280;44750;52.040;7.472;2023-07-13T04:38:59;100207.88;;;16.59;nan
58973;BME280;44750;52.040;7.472;2023-07-13T04:43:59;100195.28;;;16.71;nan
58973;BME280;44750;52.040;7.472;2023-07-13T04:48:59;100163.78;;;16.82;nan
58973;BME280;44750;52.040;7.472;2023-07-13T04:53:59;100158.72;;;16.72;nan
58973;BME280;44750;52.040;7.472;2023-07-13T04:59:00;100229.88;;;17.05;nan
58973;BME280;44750;52.040;7.472;2023-07-13T05:04:00;100208.47;;;17.36;nan
58973;BME280;44750;52.040;7.472;2023-07-13T05:09:00;100256.88;;;17.69;nan
58973;BME280;44750;52.040;7.472;2023-07-13T05:14:01;100218.56;;;17.69;nan
58973;BME280;44750;52.040;7.472;2023-07-13T05:19:04;100274.75;;;18.12;nan
58973;BME280;44750;52.040;7.472;2023-07-13T05:24:04;100234.06;;;18.09;nan
58973;BME280;44750;52.040;7.472;2023-07-13T05:29:05;100297.41;;;18.52;nan
58973;BME280;44750;52.040;7.472;2023-07-13T05:34:05;100295.19;;;18.81;nan
58973;BME280;44750;52.040;7.472;2023-07-13T05:39:05;100244.00;;;18.68;nan
58973;BME280;44750;52.040;7.472;2023-07-13T05:44:06;100242.28;;;18.74;nan
58973;BME280;44750;52.040;7.472;2023-07-13T05:49:06;100205.19;;;18.71;nan
58973;BME280;44750;52.040;7.472;2023-07-13T05:54:06;100262.03;;;18.96;nan
58973;BME280;44750;52.040;7.472;2023-07-13T05:59:07;100231.06;;;18.89;nan
58973;BME280;44750;52.040;7.472;2023-07-13T06:04:07;100166.06;;;18.51;nan
58973;BME280;44750;52.040;7.472;2023-07-13T06:09:07;100263.28;;;18.94;nan
58973;BME280;44750;52.040;7.472;2023-07-13T06:14:07;100258.81;;;19.06;nan
58973;BME280;44750;52.040;7.472;2023-07-13T06:19:08;100269.44;;;19.28;nan
58973;BME280;44750;52.040;7.472;2023-07-13T06:24:08;100281.38;;;19.40;nan
58973;BME280;44750;52.040;7.472;2023-07-13T06:29:08;100306.94;;;19.66;nan
58973;BME280;44750;52.040;7.472;2023-07-13T06:34:08;100330.69;;;19.85;nan
58973;BME280;44750;52.040;7.472;2023-07-13T06:39:09;100336.34;;;20.16;nan
58973;BME280;44750;52.040;7.472;2023-07-13T06:44:09;100388.72;;;20.65;nan
58973;BME280;44750;52.040;7.472;2023-07-13T06:49:09;100357.34;;;20.91;nan
58973;BME280;44750;52.040;7.472;2023-07-13T06:54:09;100347.84;;;21.05;nan
58973;BME280;44750;52.040;7.472;2023-07-13T06:59:10;100302.69;;;20.95;nan
58973;BME280;44750;52.040;7.472;2023-07-13T07:04:10;100252.47;;;20.69;nan
58973;BME280;44750;52.040;7.472;2023-07-13T07:09:10;100365.50;;;21.16;nan
58973;BME280;44750;52.040;7.472;2023-07-13T07:14:10;100359.53;;;21.50;nan
58973;BME280;44750;52.040;7.472;2023-07-13T07:19:11;100350.91;;;21.46;nan
58973;BME280;44750;52.040;7.472;2023-07-13T07:24:11;100335.34;;;21.82;nan
58973;BME280;44750;52.040;7.472;2023-07-13T07:29:11;100350.56;;;21.97;nan
58973;BME280;44750;52.040;7.472;2023-07-13T07:34:12;100391.38;;;22.42;nan
58973;BME280;44750;52.040;7.472;2023-07-13T07:39:12;100404.31;;;22.77;nan
58973;BME280;44750;52.040;7.472;2023-07-13T07:44:12;100391.81;;;22.86;nan
58973;BME280;44750;52.040;7.472;2023-07-13T07:49:13;100273.38;;;22.44;nan
58973;BME280;44750;52.040;7.472;2023-07-13T07:54:13;100201.91;;;21.66;nan
58973;BME280;44750;52.040;7.472;2023-07-13T07:59:13;100132.31;;;21.47;nan
58973;BME280;44750;52.040;7.472;2023-07-13T08:04:14;100323.63;;;22.11;nan
58973;BME280;44750;52.040;7.472;2023-07-13T08:09:14;100407.41;;;22.93;nan
58973;BME280;44750;52.040;7.472;2023-07-13T08:14:14;100332.56;;;22.77;nan
58973;BME280;44750;52.040;7.472;2023-07-13T08:19:14;100339.38;;;22.86;nan
58973;BME280;44750;52.040;7.472;2023-07-13T08:24:15;100352.22;;;22.93;nan
58973;BME280;44750;52.040;7.472;2023-07-13T08:29:15;100264.38;;;22.61;nan
58973;BME280;44750;52.040;7.472;2023-07-13T08:34:15;100259.22;;;22.52;nan
58973;BME280;44750;52.040;7.472;2023-07-13T08:39:16;100290.03;;;22.61;nan
58973;BME280;44750;52.040;7.472;2023-07-13T08:44:30;100429.28;;;23.35;nan
58973;BME280;44750;52.040;7.472;2023-07-13T08:49:36;100442.41;;;23.28;nan
58973;BME280;44750;52.040;7.472;2023-07-13T08:54:49;100516.91;;;23.63;nan
58973;BME280;44750;52.040;7.472;2023-07-13T08:59:50;100406.97;;;24.11;nan
58973;BME280;44750;52.040;7.472;2023-07-13T09:04:59;100435.53;;;24.00;nan
58973;BME280;44750;52.040;7.472;2023-07-13T09:15:47;100327.84;;;23.59;nan
58973;BME280;44750;52.040;7.472;2023-07-13T09:20:56;100368.75;;;24.08;nan
58973;BME280;44750;52.040;7.472;2023-07-13T09:26:09;100320.84;;;24.02;nan
58973;BME280;44750;52.040;7.472;2023-07-13T09:31:19;100205.13;;;23.09;nan
58973;BME280;44750;52.040;7.472;2023-07-13T09:36:27;100252.88;;;22.93;nan
58973;BME280;44750;52.040;7.472;2023-07-13T09:46:53;100219.09;;;22.74;nan
58973;BME280;44750;52.040;7.472;2023-07-13T09:51:59;100447.19;;;24.02;nan
58973;BME280;44750;52.040;7.472;2023-07-13T09:57:01;100437.22;;;24.35;nan
58973;BME280;44750;52.040;7.472;2023-07-13T10:02:07;100283.94;;;23.63;nan
58973;BME280;44750;52.040;7.472;2023-07-13T10:07:22;100344.72;;;23.92;nan
58973;BME280;44750;52.040;7.472;2023-07-13T10:12:24;100311.50;;;23.75;nan
58973;BME280;44750;52.040;7.472;2023-07-13T10:17:30;100259.19;;;23.68;nan
58973;BME280;44750;52.040;7.472;2023-07-13T10:22:39;100513.72;;;24.75;nan
58973;BME280;44750;52.040;7.472;2023-07-13T10:27:42;100601.31;;;25.99;nan
58973;BME280;44750;52.040;7.472;2023-07-13T10:32:43;100317.13;;;24.70;nan
58973;BME280;44750;52.040;7.472;2023-07-13T10:37:55;100230.13;;;23.82;nan
58973;BME280;44750;52.040;7.472;2023-07-13T10:42:59;100371.88;;;24.68;nan
58973;BME280;44750;52.040;7.472;2023-07-13T10:48:02;100269.72;;;24.22;nan
58973;BME280;44750;52.040;7.472;2023-07-13T10:53:19;100222.34;;;23.79;nan
58973;BME280;44750;52.040;7.472;2023-07-13T10:58:24;100479.97;;;25.17;nan
58973;BME280;44750;52.040;7.472;2023-07-13T11:03:30;100457.81;;;25.62;nan
58973;BME280;44750;52.040;7.472;2023-07-13T11:24:14;100180.50;;;25.36;nan
58973;BME280;44750;52.040;7.472;2023-07-13T11:34:26;100442.97;;;27.08;nan
58973;BME280;44750;52.040;7.472;2023-07-13T11:39:32;100308.78;;;27.02;nan
58973;BME280;44750;52.040;7.472;2023-07-13T11:44:34;100187.09;;;26.10;nan
58973;BME280;44750;52.040;7.472;2023-07-13T11:49:43;100298.31;;;26.57;nan
58973;BME280;44750;52.040;7.472;2023-07-13T11:54:54;100122.97;;;26.01;nan
58973;BME280;44750;52.040;7.472;2023-07-13T11:59:55;100102.06;;;25.78;nan
58973;BME280;44750;52.040;7.472;2023-07-13T12:04:56;100000.25;;;25.10;nan
58973;BME280;44750;52.040;7.472;2023-07-13T12:10:15;99964.16;;;24.57;nan
58973;BME280;44750;52.040;7.472;2023-07-13T12:15:17;99972.88;;;24.11;nan
58973;BME280;44750;52.040;7.472;2023-07-13T12:20:21;100152.06;;;24.14;nan
58973;BME280;44750;52.040;7.472;2023-07-13T12:25:28;100445.97;;;25.22;nan
58973;BME280;44750;52.040;7.472;2023-07-13T12:30:31;100312.06;;;25.61;nan
58973;BME280;44750;52.040;7.472;2023-07-13T12:35:40;100350.31;;;25.96;nan
58973;BME280;44750;52.040;7.472;2023-07-13T12:40:42;100179.69;;;25.78;nan
58973;BME280;44750;52.040;7.472;2023-07-13T12:51:00;100052.34;;;25.13;nan
58973;BME280;44750;52.040;7.472;2023-07-13T12:56:02;100136.81;;;25.16;nan
58973;BME280;44750;52.040;7.472;2023-07-13T13:01:04;100353.91;;;25.59;nan
58973;BME280;44750;52.040;7.472;2023-07-13T13:11:18;100211.56;;;26.18;nan
58973;BME280;44750;52.040;7.472;2023-07-13T13:21:24;99928.66;;;24.81;nan
58973;BME280;44750;52.040;7.472;2023-07-13T13:26:24;99917.84;;;24.80;nan
58973;BME280;44750;52.040;7.472;2023-07-13T13:31:24;99908.25;;;24.55;nan
58973;BME280;44750;52.040;7.472;2023-07-13T13:36:25;99950.22;;;24.47;nan
58973;BME280;44750;52.040;7.472;2023-07-13T13:41:25;99845.09;;;24.04;nan
58973;BME280;44750;52.040;7.472;2023-07-13T13:46:25;99805.22;;;23.67;nan
58973;BME280;44750;52.040;7.472;2023-07-13T13:51:26;99987.97;;;23.54;nan
58973;BME280;44750;52.040;7.472;2023-07-13T13:56:26;99982.66;;;23.47;nan
58973;BME280;44750;52.040;7.472;2023-07-13T14:01:27;100006.06;;;23.23;nan
58973;BME280;44750;52.040;7.472;2023-07-13T14:06:28;100000.03;;;23.09;nan
58973;BME280;44750;52.040;7.472;2023-07-13T14:11:29;100051.63;;;22.91;nan
58973;BME280;44750;52.040;7.472;2023-07-13T14:16:32;100076.97;;;23.05;nan
58973;BME280;44750;52.040;7.472;2023-07-13T14:21:33;100048.56;;;22.87;nan
58973;BME280;44750;52.040;7.472;2023-07-13T14:26:37;99998.13;;;22.75;nan
58973;BME280;44750;52.040;7.472;2023-07-13T14:31:37;100080.22;;;22.68;nan
58973;BME280;44750;52.040;7.472;2023-07-13T14:36:41;100267.53;;;23.22;nan
58973;BME280;44750;52.040;7.472;2023-07-13T14:41:43;100355.38;;;23.54;nan
58973;BME280;44750;52.040;7.472;2023-07-13T14:46:44;100122.91;;;23.11;nan
58973;BME280;44750;52.040;7.472;2023-07-13T14:51:45;100146.94;;;22.65;nan
58973;BME280;44750;52.040;7.472;2023-07-13T14:56:46;100259.34;;;22.86;nan
58973;BME280;44750;52.040;7.472;2023-07-13T15:01:48;100395.56;;;23.33;nan
58973;BME280;44750;52.040;7.472;2023-07-13T15:06:54;100354.03;;;23.28;nan
58973;BME280;44750;52.040;7.472;2023-07-13T15:11:56;100313.50;;;23.16;nan
58973;BME280;44750;52.040;7.472;2023-07-13T15:16:56;100399.63;;;23.42;nan
58973;BME280;44750;52.040;7.472;2023-07-13T15:21:57;100481.84;;;23.93;nan
58973;BME280;44750;52.040;7.472;2023-07-13T15:26:57;100267.63;;;23.61;nan
58973;BME280;44750;52.040;7.472;2023-07-13T15:31:57;100203.84;;;23.63;nan
58973;BME280;44750;52.040;7.472;2023-07-13T15:36:58;100267.41;;;23.97;nan
58973;BME280;44750;52.040;7.472;2023-07-13T15:41:58;100363.53;;;24.85;nan
58973;BME280;44750;52.040;7.472;2023-07-13T15:46:58;100221.44;;;24.74;nan
58973;BME280;44750;52.040;7.472;2023-07-13T15:51:58;99998.13;;;24.20;nan
58973;BME280;44750;52.040;7.472;2023-07-13T15:57:01;100084.56;;;24.10;nan
58973;BME280;44750;52.040;7.472;2023-07-13T16:02:11;100157.66;;;24.42;nan
58973;BME280;44750;52.040;7.472;2023-07-13T16:07:14;100175.06;;;24.64;nan
58973;BME280;44750;52.040;7.472;2023-07-13T16:12:15;100066.97;;;24.21;nan
58973;BME280;44750;52.040;7.472;2023-07-13T16:17:16;99971.81;;;23.68;nan
58973;BME280;44750;52.040;7.472;2023-07-13T16:22:18;99901.88;;;22.96;nan
58973;BME280;44750;52.040;7.472;2023-07-13T16:27:19;99954.41;;;22.84;nan
58973;BME280;44750;52.040;7.472;2023-07-13T16:32:19;99961.13;;;22.54;nan
58973;BME280;44750;52.040;7.472;2023-07-13T16:37:28;100036.19;;;22.27;nan
58973;BME280;44750;52.040;7.472;2023-07-13T16:42:29;100111.47;;;21.51;nan
58973;BME280;44750;52.040;7.472;2023-07-13T16:47:29;100160.69;;;20.94;nan
58973;BME280;44750;52.040;7.472;2023-07-13T16:52:29;100162.53;;;20.20;nan
58973;BME280;44750;52.040;7.472;2023-07-13T16:57:32;100249.22;;;19.72;nan
58973;BME280;44750;52.040;7.472;2023-07-13T17:02:35;100347.06;;;19.99;nan
58973;BME280;44750;52.040;7.472;2023-07-13T17:07:35;100355.56;;;20.16;nan
58973;BME280;44750;52.040;7.472;2023-07-13T17:12:36;100359.66;;;20.32;nan
58973;BME280;44750;52.040;7.472;2023-07-13T17:17:37;100284.00;;;19.85;nan
58973;BME280;44750;52.040;7.472;2023-07-13T17:22:38;100320.09;;;19.89;nan
58973;BME280;44750;52.040;7.472;2023-07-13T17:27:39;100321.66;;;20.03;nan
58973;BME280;44750;52.040;7.472;2023-07-13T17:32:39;100344.41;;;20.11;nan
58973;BME280;44750;52.040;7.472;2023-07-13T17:37:40;100358.69;;;20.45;nan
58973;BME280;44750;52.040;7.472;2023-07-13T17:42:40;100388.72;;;20.65;nan
58973;BME280;44750;52.040;7.472;2023-07-13T17:47:40;100366.81;;;20.58;nan
58973;BME280;44750;52.040;7.472;2023-07-13T17:52:40;100422.69;;;20.77;nan
58973;BME280;44750;52.040;7.472;2023-07-13T17:57:41;100406.47;;;20.69;nan
58973;BME280;44750;52.040;7.472;2023-07-13T18:02:41;100418.75;;;20.66;nan
58973;BME280;44750;52.040;7.472;2023-07-13T18:07:41;100409.34;;;20.55;nan
58973;BME280;44750;52.040;7.472;2023-07-13T18:12:42;100431.50;;;20.61;nan
58973;BME280;44750;52.040;7.472;2023-07-13T18:17:47;100441.28;;;20.57;nan
58973;BME280;44750;52.040;7.472;2023-07-13T18:22:49;100418.44;;;20.31;nan
58973;BME280;44750;52.040;7.472;2023-07-13T18:27:49;100425.75;;;20.18;nan
58973;BME280;44750;52.040;7.472;2023-07-13T18:32:52;100445.47;;;20.09;nan
58973;BME280;44750;52.040;7.472;2023-07-13T18:37:53;100456.53;;;20.02;nan
58973;BME280;44750;52.040;7.472;2023-07-13T18:42:54;100423.47;;;19.77;nan
58973;BME280;44750;52.040;7.472;2023-07-13T18:47:55;100418.56;;;19.47;nan
58973;BME280;44750;52.040;7.472;2023-07-13T18:52:56;100427.81;;;19.52;nan
58973;BME280;44750;52.040;7.472;2023-07-13T18:57:56;100420.34;;;19.28;nan
58973;BME280;44750;52.040;7.472;2023-07-13T19:02:57;100428.59;;;19.28;nan
58973;BME280;44750;52.040;7.472;2023-07-13T19:07:59;100418.53;;;19.08;nan
58973;BME280;44750;52.040;7.472;2023-07-13T19:12:59;100407.63;;;18.75;nan
58973;BME280;44750;52.040;7.472;2023-07-13T19:18:04;100428.72;;;18.74;nan
58973;BME280;44750;52.040;7.472;2023-07-13T19:23:20;100464.56;;;18.86;nan
58973;BME280;44750;52.040;7.472;2023-07-13T19:28:42;100481.88;;;18.93;nan
58973;BME280;44750;52.040;7.472;2023-07-13T19:33:43;100486.53;;;18.93;nan
58973;BME280;44750;52.040;7.472;2023-07-13T19:38:43;100516.03;;;18.97;nan
58973;BME280;44750;52.040;7.472;2023-07-13T19:43:45;100519.19;;;18.87;nan
58973;BME280;44750;52.040;7.472;2023-07-13T19:48:45;100516.47;;;18.67;nan
58973;BME280;44750;52.040;7.472;2023-07-13T19:53:48;100539.69;;;18.65;nan
58973;BME280;44750;52.040;7.472;2023-07-13T19:58:48;100572.97;;;18.75;nan
58973;BME280;44750;52.040;7.472;2023-07-13T20:03:48;100578.88;;;18.72;nan
58973;BME280;44750;52.040;7.472;2023-07-13T20:08:48;100563.25;;;18.52;nan
58973;BME280;44750;52.040;7.472;2023-07-13T20:13:49;100558.78;;;18.25;nan
58973;BME280;44750;52.040;7.472;2023-07-13T20:18:49;100623.16;;;18.49;nan
58973;BME280;44750;52.040;7.472;2023-07-13T20:23:49;100628.84;;;18.47;nan
58973;BME280;44750;52.040;7.472;2023-07-13T20:28:50;100629.66;;;18.41;nan
58973;BME280;44750;52.040;7.472;2023-07-13T20:33:50;100650.56;;;18.49;nan
58973;BME280;44750;52.040;7.472;2023-07-13T20:38:50;100640.78;;;18.19;nan
58973;BME280;44750;52.040;7.472;2023-07-13T20:43:50;100664.59;;;18.26;nan
58973;BME280;44750;52.040;7.472;2023-07-13T20:48:51;100659.91;;;18.06;nan
58973;BME280;44750;52.040;7.472;2023-07-13T20:53:52;100679.09;;;18.06;nan
58973;BME280;44750;52.040;7.472;2023-07-13T20:58:52;100687.47;;;18.04;nan
58973;BME280;44750;52.040;7.472;2023-07-13T21:03:55;100693.41;;;18.08;nan
58973;BME280;44750;52.040;7.472;2023-07-13T21:08:59;100665.06;;;17.87;nan
58973;BME280;44750;52.040;7.472;2023-07-13T21:14:00;100669.84;;;17.79;nan
58973;BME280;44750;52.040;7.472;2023-07-13T21:19:00;100708.81;;;17.81;nan
58973;BME280;44750;52.040;7.472;2023-07-13T21:24:01;100714.28;;;17.81;nan
58973;BME280;44750;52.040;7.472;2023-07-13T21:29:01;100733.63;;;17.79;nan
58973;BME280;44750;52.040;7.472;2023-07-13T21:34:15;100731.47;;;17.68;nan
58973;BME280;44750;52.040;7.472;2023-07-13T21:39:18;100707.94;;;17.45;nan
58973;BME280;44750;52.040;7.472;2023-07-13T21:44:30;100756.59;;;17.50;nan
58973;BME280;44750;52.040;7.472;2023-07-13T21:49:30;100768.00;;;17.53;nan
58973;BME280;44750;52.040;7.472;2023-07-13T21:54:30;100771.69;;;17.46;nan
58973;BME280;44750;52.040;7.472;2023-07-13T21:59:31;100769.78;;;17.40;nan
58973;BME280;44750;52.040;7.472;2023-07-13T22:04:31;100763.94;;;17.21;nan
58973;BME280;44750;52.040;7.472;2023-07-13T22:09:31;100794.84;;;17.21;nan
58973;BME280;44750;52.040;7.472;2023-07-13T22:14:32;100795.25;;;17.18;nan
58973;BME280;44750;52.040;7.472;2023-07-13T22:19:32;100824.09;;;17.21;nan
58973;BME280;44750;52.040;7.472;2023-07-13T22:24:32;100824.41;;;17.11;nan
58973;BME280;44750;52.040;7.472;2023-07-13T22:29:33;100837.13;;;17.19;nan
58973;BME280;44750;52.040;7.472;2023-07-13T22:34:33;100844.22;;;17.13;nan
58973;BME280;44750;52.040;7.472;2023-07-13T22:39:34;100859.19;;;17.17;nan
58973;BME280;44750;52.040;7.472;2023-07-13T22:44:34;100875.13;;;17.29;nan
58973;BME280;44750;52.040;7.472;2023-07-13T22:49:34;100881.50;;;17.36;nan
58973;BME280;44750;52.040;7.472;2023-07-13T22:54:35;100874.72;;;17.32;nan
58973;BME280;44750;52.040;7.472;2023-07-13T22:59:35;100856.47;;;17.17;nan
58973;BME280;44750;52.040;7.472;2023-07-13T23:04:36;100860.41;;;17.15;nan
58973;BME280;44750;52.040;7.472;2023-07-13T23:09:36;100853.38;;;17.05;nan
58973;BME280;44750;52.040;7.472;2023-07-13T23:14:36;100854.44;;;16.90;nan
58973;BME280;44750;52.040;7.472;2023-07-13T23:19:37;100865.06;;;16.84;nan
58973;BME280;44750;52.040;7.472;2023-07-13T23:24:37;100894.91;;;16.94;nan
58973;BME280;44750;52.040;7.472;2023-07-13T23:29:37;100896.22;;;16.98;nan
58973;BME280;44750;52.040;7.472;2023-07-13T23:34:37;100896.41;;;16.97;nan
58973;BME280;44750;52.040;7.472;2023-07-13T23:39:38;100884.00;;;16.86;nan
58973;BME280;44750;52.040;7.472;2023-07-13T23:44:38;100916.28;;;17.05;nan
58973;BME280;44750;52.040;7.472;2023-07-13T23:49:38;100895.94;;;16.93;nan
58973;BME280;44750;52.040;7.472;2023-07-13T23:54:38;100915.16;;;17.00;nan
58973;BME280;44750;52.040;7.472;2023-07-13T23:59:39;100917.69;;;17.01;nan
